Time;durP1;ratioP1;P1;durP2;ratioP2;P2;SDS_P1;SDS_P2;PMS_P1;PMS_P2;Temp;Humidity;BMP_temperature;BMP_pressure;BME280_temperature;BME280_humidity;BME280_pressure;Samples;Min_cycle;Max_cycle;Signal;HPM_P1;HPM_P2
2021/05/26 00:01:50;;;;;;;3.00;0.60;;;4.10;99.90;;;;;;6284739;28;20233;-72
2021/05/26 00:04:52;;;;;;;1.90;1.00;;;4.00;99.90;;;;;;6283137;28;20231;-71
2021/05/26 00:07:54;;;;;;;0.60;0.50;;;4.00;99.90;;;;;;6284326;28;20230;-72
2021/05/26 00:10:58;;;;;;;0.87;0.50;;;4.00;99.90;;;;;;6266521;28;20705;-72
2021/05/26 00:14:01;;;;;;;2.53;0.80;;;4.00;99.90;;;;;;6284343;28;20711;-72
2021/05/26 00:17:04;;;;;;;1.03;0.60;;;4.00;99.90;;;;;;6284897;28;20219;-72
2021/05/26 00:20:07;;;;;;;1.03;0.60;;;4.00;99.90;;;;;;6283490;28;20233;-71
2021/05/26 00:23:09;;;;;;;2.37;0.67;;;3.90;99.90;;;;;;6267804;28;20227;-72
2021/05/26 00:26:11;;;;;;;0.80;0.50;;;3.90;99.90;;;;;;6258036;28;20231;-72
2021/05/26 00:29:14;;;;;;;1.33;0.60;;;4.00;99.90;;;;;;6259691;28;20264;-72
2021/05/26 00:32:16;;;;;;;2.23;0.67;;;3.90;99.90;;;;;;6258708;28;20224;-72
2021/05/26 00:35:18;;;;;;;1.43;0.70;;;4.00;99.90;;;;;;6256957;28;20259;-72
2021/05/26 00:38:20;;;;;;;4.57;1.00;;;3.90;99.90;;;;;;6258267;28;20250;-72
2021/05/26 00:41:29;;;;;;;1.30;0.60;;;3.80;99.90;;;;;;6259409;28;20235;-72
2021/05/26 00:44:31;;;;;;;2.83;0.50;;;3.80;99.90;;;;;;6258014;28;20236;-72
2021/05/26 00:47:44;;;;;;;1.93;0.40;;;3.80;99.90;;;;;;6256635;28;20223;-72
2021/05/26 00:50:46;;;;;;;4.73;0.80;;;3.90;99.90;;;;;;6256904;28;20277;-71
2021/05/26 00:53:48;;;;;;;2.20;0.63;;;3.80;99.90;;;;;;6257752;28;20227;-71
2021/05/26 00:56:50;;;;;;;0.77;0.57;;;3.80;99.90;;;;;;6256741;28;20365;-71
2021/05/26 00:59:52;;;;;;;1.07;0.80;;;3.80;99.90;;;;;;6257588;28;20773;-71
2021/05/26 01:02:55;;;;;;;0.60;0.50;;;3.80;99.90;;;;;;6257057;28;20788;-71
2021/05/26 01:05:57;;;;;;;3.30;0.60;;;3.70;99.90;;;;;;6258517;28;20703;-71
2021/05/26 01:08:59;;;;;;;2.00;0.67;;;3.70;99.90;;;;;;6256893;28;20275;-72
2021/05/26 01:12:03;;;;;;;0.50;0.47;;;3.70;99.90;;;;;;6256841;28;20230;-71
2021/05/26 01:15:09;;;;;;;1.67;0.73;;;3.70;99.90;;;;;;6257213;28;20200;-71
2021/05/26 01:18:26;;;;;;;2.67;0.70;;;3.70;99.90;;;;;;6271872;28;20238;-71
2021/05/26 01:21:54;;;;;;;3.10;0.70;;;3.60;99.90;;;;;;6278407;28;20266;-71
2021/05/26 01:24:57;;;;;;;1.97;0.50;;;3.50;99.90;;;;;;6280225;28;20285;-72
2021/05/26 01:28:01;;;;;;;3.47;0.77;;;3.50;99.90;;;;;;6280822;28;20230;-71
2021/05/26 01:31:04;;;;;;;1.93;0.60;;;3.50;99.90;;;;;;6282458;28;20237;-72
2021/05/26 01:34:06;;;;;;;2.90;0.87;;;3.50;99.90;;;;;;6282459;28;20237;-72
2021/05/26 01:37:12;;;;;;;4.03;0.70;;;3.50;99.90;;;;;;6282369;28;20237;-72
2021/05/26 01:40:18;;;;;;;3.53;0.63;;;3.50;99.90;;;;;;6281304;28;20222;-72
2021/05/26 01:43:23;;;;;;;1.80;0.70;;;3.50;99.90;;;;;;6281225;28;20270;-72
2021/05/26 01:46:26;;;;;;;1.27;0.40;;;3.50;99.90;;;;;;6280278;28;20252;-72
2021/05/26 01:49:28;;;;;;;0.87;0.77;;;3.50;99.90;;;;;;6264259;28;20317;-72
2021/05/26 01:52:31;;;;;;;0.63;0.60;;;3.40;99.90;;;;;;6282596;28;20257;-72
2021/05/26 01:55:36;;;;;;;1.40;0.50;;;3.40;99.90;;;;;;6284111;28;20249;-72
2021/05/26 01:58:40;;;;;;;0.70;0.70;;;3.40;99.90;;;;;;6280768;28;20235;-72
2021/05/26 02:01:44;;;;;;;0.73;0.57;;;3.40;99.90;;;;;;6281400;28;20226;-72
2021/05/26 02:04:46;;;;;;;2.80;0.67;;;3.40;99.90;;;;;;6282775;28;20237;-72
2021/05/26 02:07:48;;;;;;;3.03;0.70;;;3.40;99.90;;;;;;6279476;28;20238;-71
2021/05/26 02:14:11;;;;;;;1.00;0.50;;;3.30;99.90;;;;;;6279456;28;20238;-72
2021/05/26 02:17:14;;;;;;;1.83;0.53;;;3.30;99.90;;;;;;6280460;28;20237;-72
2021/05/26 02:20:16;;;;;;;1.83;0.60;;;3.30;99.90;;;;;;6279008;28;20625;-72
2021/05/26 02:23:18;;;;;;;1.60;0.50;;;3.30;99.90;;;;;;6265209;28;20237;-72
2021/05/26 02:26:21;;;;;;;2.40;0.87;;;3.30;99.90;;;;;;6256414;28;20234;-72
2021/05/26 02:29:23;;;;;;;1.90;0.70;;;3.30;99.90;;;;;;6255237;28;20230;-72
2021/05/26 02:32:26;;;;;;;1.03;0.60;;;3.30;99.90;;;;;;6257228;28;20282;-72
2021/05/26 02:35:29;;;;;;;0.43;0.43;;;3.20;99.90;;;;;;6256407;28;20310;-72
2021/05/26 02:38:31;;;;;;;0.77;0.60;;;3.20;99.90;;;;;;6254963;28;20342;-72
2021/05/26 02:41:34;;;;;;;0.60;0.40;;;3.20;99.90;;;;;;6254732;28;20598;-72
2021/05/26 02:44:36;;;;;;;1.33;0.53;;;3.10;99.90;;;;;;6255709;28;20268;-72
2021/05/26 02:47:38;;;;;;;1.20;0.60;;;3.10;99.90;;;;;;6254828;28;20364;-72
2021/05/26 02:50:40;;;;;;;3.80;1.03;;;3.20;99.90;;;;;;6254337;28;20726;-72
2021/05/26 02:53:42;;;;;;;1.53;0.70;;;3.20;99.90;;;;;;6275839;28;20705;-72
2021/05/26 02:56:46;;;;;;;2.80;0.63;;;3.20;99.90;;;;;;6279002;28;20280;-72
2021/05/26 03:00:08;;;;;;;3.00;0.70;;;3.20;99.90;;;;;;6279918;28;20211;-72
2021/05/26 03:03:32;;;;;;;0.63;0.50;;;3.20;99.90;;;;;;6279108;28;20234;-72
2021/05/26 03:06:40;;;;;;;0.60;0.60;;;3.20;99.90;;;;;;6262983;28;20253;-72
2021/05/26 03:09:42;;;;;;;0.60;0.57;;;3.20;99.90;;;;;;6279498;28;20229;-72
2021/05/26 03:12:44;;;;;;;1.43;0.60;;;3.10;99.90;;;;;;6281121;28;20218;-72
2021/05/26 03:15:53;;;;;;;1.67;0.77;;;3.10;99.90;;;;;;6278997;28;20233;-72
2021/05/26 03:18:57;;;;;;;1.83;0.67;;;3.10;99.90;;;;;;6278289;28;20234;-72
2021/05/26 03:22:02;;;;;;;0.50;0.50;;;3.10;99.90;;;;;;6272947;28;20385;-72
2021/05/26 03:25:26;;;;;;;2.60;1.07;;;3.10;99.90;;;;;;6259680;28;20242;-72
2021/05/26 03:28:41;;;;;;;2.67;0.67;;;3.10;99.90;;;;;;6253638;28;20235;-72
2021/05/26 03:31:43;;;;;;;1.40;0.77;;;3.20;99.90;;;;;;6256649;28;20729;-72
2021/05/26 03:34:46;;;;;;;1.60;0.60;;;3.20;99.90;;;;;;6254567;28;20250;-72
2021/05/26 03:37:49;;;;;;;2.67;0.80;;;3.20;99.90;;;;;;6237951;28;20341;-72
2021/05/26 03:40:51;;;;;;;0.90;0.60;;;3.20;99.90;;;;;;6254993;28;20778;-72
2021/05/26 03:43:55;;;;;;;2.50;0.80;;;3.20;99.90;;;;;;6252783;28;22329;-72
2021/05/26 03:46:57;;;;;;;2.13;0.60;;;3.20;99.90;;;;;;6253280;28;20360;-72
2021/05/26 03:49:59;;;;;;;2.60;0.80;;;3.30;99.90;;;;;;6255008;28;20240;-72
2021/05/26 03:53:05;;;;;;;2.00;0.60;;;3.30;99.90;;;;;;6254523;28;20261;-72
2021/05/26 03:56:08;;;;;;;1.67;1.03;;;3.30;99.90;;;;;;6255604;28;20230;-72
2021/05/26 03:59:25;;;;;;;1.67;0.60;;;3.30;99.90;;;;;;6254123;28;20725;-72
2021/05/26 04:02:28;;;;;;;0.90;0.60;;;3.30;99.90;;;;;;6254604;28;20246;-72
2021/05/26 04:05:30;;;;;;;2.47;0.60;;;3.40;99.90;;;;;;6253962;28;20226;-72
2021/05/26 04:08:33;;;;;;;0.90;0.70;;;3.40;99.90;;;;;;6255522;28;20227;-72
2021/05/26 04:11:36;;;;;;;3.70;0.80;;;3.40;99.90;;;;;;6254916;28;20235;-72
2021/05/26 04:14:57;;;;;;;2.80;0.60;;;3.40;99.90;;;;;;6254126;28;20604;-72
2021/05/26 04:18:25;;;;;;;0.70;0.60;;;3.50;99.90;;;;;;6268529;28;20282;-73
2021/05/26 04:21:28;;;;;;;1.50;0.70;;;3.50;99.90;;;;;;6277356;28;20226;-73
2021/05/26 04:24:30;;;;;;;0.87;0.50;;;3.50;99.90;;;;;;6278520;28;20236;-73
2021/05/26 04:27:33;;;;;;;2.13;0.90;;;3.50;99.90;;;;;;6260957;28;20234;-73
2021/05/26 04:30:35;;;;;;;4.07;0.90;;;3.60;99.90;;;;;;6278306;28;20318;-73
2021/05/26 04:33:43;;;;;;;2.23;0.83;;;3.60;99.90;;;;;;6277924;28;20231;-72
2021/05/26 04:36:45;;;;;;;1.30;0.60;;;3.70;99.90;;;;;;6279749;28;20238;-72
2021/05/26 04:39:47;;;;;;;2.50;1.07;;;3.70;99.90;;;;;;6278419;28;20707;-72
2021/05/26 04:42:49;;;;;;;2.13;0.80;;;3.70;99.90;;;;;;6278845;28;20236;-72
2021/05/26 04:45:52;;;;;;;1.80;0.70;;;3.80;99.90;;;;;;6265989;28;20336;-72
2021/05/26 04:48:55;;;;;;;2.33;0.80;;;3.90;99.90;;;;;;6265759;28;20231;-72
2021/05/26 04:51:58;;;;;;;2.20;0.63;;;4.00;99.90;;;;;;6283164;28;20230;-72
2021/05/26 04:55:03;;;;;;;2.57;0.90;;;4.00;99.90;;;;;;6282680;28;20701;-72
2021/05/26 05:02:44;;;;;;;1.20;1.10;;;4.10;99.90;;;;;;6283860;28;20292;-72
2021/05/26 05:05:46;;;;;;;2.03;0.63;;;4.20;99.90;;;;;;6280862;28;20321;-72
2021/05/26 05:08:48;;;;;;;1.03;0.80;;;4.20;99.90;;;;;;6281569;28;20232;-72
2021/05/26 05:11:50;;;;;;;0.80;0.80;;;4.30;99.90;;;;;;6282766;28;20243;-72
2021/05/26 05:14:53;;;;;;;0.90;0.80;;;4.40;99.90;;;;;;6281961;28;20265;-72
2021/05/26 05:17:55;;;;;;;0.53;0.53;;;4.40;99.90;;;;;;6282521;28;20243;-72
2021/05/26 05:20:58;;;;;;;1.20;0.80;;;4.50;99.90;;;;;;6282689;28;20283;-72
2021/05/26 05:24:00;;;;;;;0.90;0.63;;;4.50;99.90;;;;;;6260340;28;20235;-72
2021/05/26 05:27:02;;;;;;;3.80;0.90;;;4.60;99.90;;;;;;6255766;28;20230;-72
2021/05/26 05:30:05;;;;;;;1.00;0.60;;;4.60;99.90;;;;;;6256663;28;20618;-72
2021/05/26 05:33:07;;;;;;;1.33;0.83;;;4.70;99.90;;;;;;6258532;28;20210;-73
2021/05/26 05:36:12;;;;;;;2.50;0.93;;;4.70;99.90;;;;;;6256263;28;20235;-73
2021/05/26 05:39:15;;;;;;;1.43;0.90;;;4.80;99.90;;;;;;6257769;28;20231;-73
2021/05/26 05:42:18;;;;;;;2.27;1.00;;;4.90;99.90;;;;;;6259069;28;20712;-73
2021/05/26 05:45:20;;;;;;;2.73;1.27;;;5.00;99.90;;;;;;6255886;28;20204;-73
2021/05/26 05:48:22;;;;;;;2.73;0.80;;;5.20;99.90;;;;;;6257051;28;20234;-72
2021/05/26 05:51:24;;;;;;;1.30;0.87;;;5.20;99.90;;;;;;6258274;28;20244;-72
2021/05/26 05:54:26;;;;;;;3.10;1.00;;;5.40;99.90;;;;;;6256645;28;20223;-72
2021/05/26 05:57:28;;;;;;;4.30;1.30;;;5.50;99.90;;;;;;6255491;28;20225;-72
2021/05/26 06:00:32;;;;;;;1.93;1.10;;;5.60;99.90;;;;;;6257028;28;20222;-73
2021/05/26 06:03:34;;;;;;;1.67;1.23;;;5.70;99.90;;;;;;6254385;28;20332;-73
2021/05/26 06:06:36;;;;;;;1.67;0.90;;;5.80;99.90;;;;;;6257045;28;20689;-73
2021/05/26 06:09:38;;;;;;;3.43;1.10;;;6.00;99.90;;;;;;6256388;28;20602;-73
2021/05/26 06:12:40;;;;;;;3.17;1.13;;;6.20;99.90;;;;;;6254968;28;20230;-73
2021/05/26 06:15:43;;;;;;;2.80;1.20;;;6.40;99.90;;;;;;6256827;28;20477;-72
2021/05/26 06:18:45;;;;;;;5.40;1.67;;;6.60;99.90;;;;;;6277132;28;20237;-72
2021/05/26 06:21:47;;;;;;;3.80;1.30;;;6.70;99.90;;;;;;6280963;28;20275;-73
2021/05/26 06:24:50;;;;;;;2.47;1.10;;;7.00;99.90;;;;;;6279641;28;20240;-73
2021/05/26 06:27:53;;;;;;;2.60;1.10;;;7.20;99.90;;;;;;6279935;28;20222;-73
2021/05/26 06:30:57;;;;;;;1.17;0.90;;;7.40;99.90;;;;;;6281439;28;20222;-73
2021/05/26 06:33:59;;;;;;;1.67;0.80;;;7.70;99.90;;;;;;6281339;28;20233;-71
2021/05/26 06:37:02;;;;;;;2.27;1.10;;;8.00;99.90;;;;;;6280442;28;20699;-73
2021/05/26 06:40:06;;;;;;;2.20;0.80;;;8.30;99.90;;;;;;6263167;28;20712;-73
2021/05/26 06:43:08;;;;;;;3.23;0.70;;;8.60;99.90;;;;;;6280062;28;20236;-73
2021/05/26 06:46:10;;;;;;;1.60;0.67;;;9.00;99.90;;;;;;6280560;28;20713;-73
2021/05/26 06:49:12;;;;;;;0.83;0.40;;;9.40;99.90;;;;;;6279956;28;20253;-72
2021/05/26 06:52:14;;;;;;;1.17;0.67;;;9.80;99.90;;;;;;6281480;28;20604;-72
2021/05/26 06:55:16;;;;;;;2.97;0.80;;;10.10;99.90;;;;;;6280318;28;20230;-71
2021/05/26 06:58:18;;;;;;;1.87;0.57;;;10.50;99.90;;;;;;6279704;28;20240;-71
2021/05/26 07:01:20;;;;;;;1.10;0.60;;;10.80;99.90;;;;;;6279804;28;20232;-71
2021/05/26 07:04:22;;;;;;;2.23;0.67;;;11.10;99.90;;;;;;6279423;28;20226;-71
2021/05/26 07:07:24;;;;;;;0.83;0.50;;;11.40;99.90;;;;;;6279739;28;20228;-71
2021/05/26 07:10:26;;;;;;;0.70;0.40;;;11.70;99.90;;;;;;6279962;28;20596;-71
2021/05/26 07:13:28;;;;;;;0.70;0.50;;;12.00;99.90;;;;;;6279451;28;20229;-71
2021/05/26 07:16:30;;;;;;;0.80;0.40;;;12.40;99.90;;;;;;6279247;28;20246;-71
2021/05/26 07:19:32;;;;;;;2.70;0.90;;;12.80;99.90;;;;;;6280299;28;20231;-71
2021/05/26 07:22:34;;;;;;;1.53;0.80;;;13.20;99.90;;;;;;6269818;28;20239;-71
2021/05/26 07:25:42;;;;;;;0.87;0.50;;;13.50;99.90;;;;;;6253574;28;20235;-71
2021/05/26 07:28:45;;;;;;;1.03;0.70;;;13.80;97.60;;;;;;6255258;28;20239;-71
2021/05/26 07:31:47;;;;;;;1.43;0.80;;;14.20;94.30;;;;;;6253535;28;20230;-71
2021/05/26 07:34:49;;;;;;;1.23;0.60;;;14.60;92.20;;;;;;6253718;28;20249;-71
2021/05/26 07:37:51;;;;;;;3.57;0.90;;;15.10;91.50;;;;;;6252665;28;20709;-71
2021/05/26 07:40:53;;;;;;;3.53;0.60;;;15.40;92.70;;;;;;6253206;28;20218;-71
2021/05/26 07:43:55;;;;;;;1.80;0.50;;;15.70;91.90;;;;;;6255870;28;20237;-71
2021/05/26 07:46:57;;;;;;;1.17;0.60;;;15.90;92.90;;;;;;6253452;28;20713;-71
2021/05/26 07:50:00;;;;;;;2.87;0.73;;;16.10;91.90;;;;;;6256303;28;20246;-71
2021/05/26 07:53:03;;;;;;;0.97;0.53;;;16.30;86.20;;;;;;6253990;28;20610;-71
2021/05/26 07:56:05;;;;;;;2.07;0.63;;;16.60;77.90;;;;;;6253409;28;20243;-71
2021/05/26 07:59:07;;;;;;;1.73;0.43;;;16.80;65.60;;;;;;6255831;28;20688;-72
2021/05/26 08:02:11;;;;;;;1.90;0.40;;;17.00;61.90;;;;;;6254742;28;20240;-71
2021/05/26 08:05:13;;;;;;;1.03;0.50;;;17.30;59.90;;;;;;6255105;28;20282;-72
2021/05/26 08:08:15;;;;;;;0.90;0.50;;;17.60;61.80;;;;;;6255629;28;20317;-72
2021/05/26 08:11:17;;;;;;;1.43;0.50;;;17.70;58.30;;;;;;6255009;28;20704;-71
2021/05/26 08:14:19;;;;;;;1.30;0.57;;;17.80;59.60;;;;;;6254780;28;20234;-71
2021/05/26 08:17:21;;;;;;;1.77;0.50;;;17.90;55.90;;;;;;6265329;28;20369;-71
2021/05/26 08:20:23;;;;;;;2.33;0.60;;;18.20;58.90;;;;;;6282553;28;20273;-72
2021/05/26 08:23:26;;;;;;;2.03;0.57;;;18.30;54.10;;;;;;6284503;28;20227;-72
2021/05/26 08:26:28;;;;;;;3.97;0.53;;;18.40;55.30;;;;;;6283833;28;20688;-72
2021/05/26 08:29:33;;;;;;;1.83;0.50;;;18.50;53.40;;;;;;6284845;28;20321;-72
2021/05/26 08:32:35;;;;;;;1.43;0.50;;;18.60;54.50;;;;;;6283946;28;20236;-71
2021/05/26 08:35:38;;;;;;;1.60;0.50;;;18.80;53.70;;;;;;6284078;28;20327;-72
2021/05/26 08:38:59;;;;;;;3.70;0.67;;;18.90;52.70;;;;;;6279224;28;20234;-71
2021/05/26 08:42:05;;;;;;;1.33;0.47;;;19.20;54.20;;;;;;6258776;28;20572;-71
2021/05/26 08:45:07;;;;;;;1.53;0.43;;;19.30;49.70;;;;;;6258747;28;20301;-71
2021/05/26 08:48:13;;;;;;;4.17;0.70;;;19.50;50.60;;;;;;6258755;28;20203;-71
2021/05/26 08:51:17;;;;;;;2.63;0.60;;;19.70;55.20;;;;;;6258978;28;20283;-72
2021/05/26 08:54:19;;;;;;;1.17;0.60;;;19.80;50.50;;;;;;6257390;28;20207;-72
2021/05/26 08:57:21;;;;;;;1.23;0.57;;;19.80;49.30;;;;;;6259754;28;20237;-72
2021/05/26 09:00:23;;;;;;;0.47;0.30;;;19.90;49.00;;;;;;6273974;28;20238;-71
2021/05/26 09:03:27;;;;;;;1.23;0.50;;;19.80;48.90;;;;;;6258531;28;20234;-72
2021/05/26 09:06:42;;;;;;;1.90;0.40;;;20.00;49.30;;;;;;6257963;28;20285;-72
2021/05/26 09:09:55;;;;;;;2.93;0.83;;;20.00;52.00;;;;;;6258980;28;20241;-71
2021/05/26 09:12:58;;;;;;;2.77;0.90;;;20.30;47.30;;;;;;6258809;28;20789;-72
2021/05/26 09:16:02;;;;;;;2.73;0.57;;;20.40;46.90;;;;;;6258148;28;20227;-72
2021/05/26 09:19:09;;;;;;;1.50;0.73;;;20.50;47.20;;;;;;6280363;28;20327;-72
2021/05/26 09:22:15;;;;;;;1.93;0.80;;;20.70;46.60;;;;;;6276548;28;20281;-72
2021/05/26 09:25:16;;;;;;;0.50;0.40;;;20.70;46.40;;;;;;6259199;28;20328;-71
2021/05/26 09:28:18;;;;;;;1.03;0.50;;;20.90;49.20;;;;;;6258457;28;20227;-72
2021/05/26 09:31:29;;;;;;;3.03;0.60;;;21.20;48.50;;;;;;6256830;28;20234;-71
2021/05/26 09:34:36;;;;;;;1.70;0.50;;;21.30;49.00;;;;;;6258330;28;20227;-71
2021/05/26 09:37:39;;;;;;;0.80;0.40;;;21.20;45.30;;;;;;6256596;28;20239;-72
2021/05/26 09:40:41;;;;;;;1.10;0.70;;;21.10;44.50;;;;;;6257654;28;20250;-72
2021/05/26 09:43:54;;;;;;;1.73;0.43;;;21.00;44.80;;;;;;6256165;28;20230;-72
2021/05/26 09:46:56;;;;;;;1.10;0.40;;;21.10;45.10;;;;;;6269008;28;20280;-71
2021/05/26 09:50:17;;;;;;;2.47;0.50;;;21.10;44.50;;;;;;6282729;28;20272;-71
2021/05/26 09:53:22;;;;;;;4.20;0.70;;;21.20;44.60;;;;;;6282671;28;20269;-72
2021/05/26 09:56:27;;;;;;;0.90;0.50;;;21.40;44.40;;;;;;6281357;28;20227;-72
2021/05/26 09:59:31;;;;;;;0.80;0.40;;;21.60;43.60;;;;;;6281676;28;20230;-71
2021/05/26 10:02:33;;;;;;;2.63;0.60;;;21.50;43.40;;;;;;6281377;28;20236;-71
2021/05/26 10:05:36;;;;;;;1.10;0.53;;;21.70;43.80;;;;;;6256364;28;20227;-72
2021/05/26 10:08:58;;;;;;;3.77;0.70;;;21.70;41.80;;;;;;6259673;28;20227;-72
2021/05/26 10:12:12;;;;;;;2.50;0.67;;;21.80;46.50;;;;;;6255686;28;20228;-71
2021/05/26 10:15:16;;;;;;;2.40;0.40;;;21.90;43.50;;;;;;6254939;28;20719;-72
2021/05/26 10:18:18;;;;;;;1.67;0.37;;;22.10;43.90;;;;;;6272678;28;20210;-72
2021/05/26 10:21:22;;;;;;;1.33;0.50;;;22.40;42.90;;;;;;6281726;28;20203;-72
2021/05/26 10:24:24;;;;;;;2.17;0.70;;;22.40;41.80;;;;;;6256792;28;20231;-72
2021/05/26 10:27:34;;;;;;;2.33;0.70;;;22.30;40.90;;;;;;6256003;28;20905;-73
2021/05/26 10:30:48;;;;;;;3.27;0.67;;;22.30;41.50;;;;;;6256646;28;20595;-72
2021/05/26 10:33:51;;;;;;;2.07;0.47;;;22.50;42.70;;;;;;6256208;28;20223;-73
2021/05/26 10:36:56;;;;;;;2.20;0.40;;;22.90;40.80;;;;;;6257336;28;20235;-73
2021/05/26 10:39:59;;;;;;;2.67;0.60;;;22.90;40.50;;;;;;6254355;28;20235;-72
2021/05/26 10:43:22;;;;;;;0.67;0.50;;;22.90;40.90;;;;;;6255909;28;20239;-72
2021/05/26 10:46:37;;;;;;;2.63;0.70;;;23.40;41.80;;;;;;6244975;28;20234;-72
2021/05/26 10:49:51;;;;;;;0.70;0.60;;;23.50;41.60;;;;;;6256480;28;20592;-72
2021/05/26 10:52:56;;;;;;;2.47;0.50;;;23.50;39.20;;;;;;6256269;28;20227;-72
2021/05/26 10:55:58;;;;;;;0.70;0.50;;;23.10;39.40;;;;;;6256388;28;20241;-72
2021/05/26 10:59:11;;;;;;;1.10;0.60;;;23.00;39.10;;;;;;6254792;28;20597;-72
2021/05/26 11:02:18;;;;;;;0.83;0.57;;;23.10;40.40;;;;;;6257374;28;20235;-71
2021/05/26 11:05:33;;;;;;;1.93;0.50;;;23.10;39.60;;;;;;6255751;28;20722;-72
2021/05/26 11:11:48;;;;;;;1.10;0.50;;;22.80;38.70;;;;;;6255394;28;20223;-72
2021/05/26 11:14:55;;;;;;;3.23;0.50;;;22.70;38.20;;;;;;6254749;28;20242;-72
2021/05/26 11:18:11;;;;;;;1.63;0.50;;;22.50;37.30;;;;;;6266768;28;20592;-72
2021/05/26 11:21:16;;;;;;;2.00;0.50;;;22.30;38.40;;;;;;6277147;28;20234;-72
2021/05/26 11:24:19;;;;;;;1.50;0.60;;;22.50;40.10;;;;;;6280480;28;20234;-72
2021/05/26 11:27:22;;;;;;;2.90;0.73;;;22.70;39.30;;;;;;6281223;28;20281;-72
2021/05/26 11:30:26;;;;;;;0.80;0.47;;;22.80;39.00;;;;;;6278852;28;20226;-72
2021/05/26 11:33:28;;;;;;;2.57;0.50;;;22.90;38.60;;;;;;6261741;28;20230;-71
2021/05/26 11:36:44;;;;;;;1.53;0.60;;;22.70;38.70;;;;;;6279447;28;20595;-72
2021/05/26 11:39:46;;;;;;;1.50;0.57;;;22.90;38.60;;;;;;6280638;28;20609;-71
2021/05/26 11:42:49;;;;;;;1.27;0.60;;;23.40;39.20;;;;;;6278301;28;20229;-71
2021/05/26 11:46:08;;;;;;;1.97;0.70;;;23.60;38.60;;;;;;6279175;28;20572;-72
2021/05/26 11:49:14;;;;;;;3.60;0.67;;;23.90;38.10;;;;;;6279080;28;20231;-72
2021/05/26 11:52:15;;;;;;;2.00;0.60;;;23.90;37.40;;;;;;6283078;28;20232;-72
2021/05/26 11:55:23;;;;;;;2.30;0.83;;;23.90;37.40;;;;;;6285065;28;20591;-72
2021/05/26 11:58:43;;;;;;;1.67;0.60;;;24.10;38.70;;;;;;6282632;28;20735;-72
2021/05/26 12:01:45;;;;;;;3.37;0.67;;;23.80;38.90;;;;;;6283666;28;20626;-71
2021/05/26 12:04:47;;;;;;;3.67;0.50;;;24.10;39.90;;;;;;6283928;28;20325;-72
2021/05/26 12:07:52;;;;;;;2.10;0.40;;;24.10;36.20;;;;;;6283503;28;20710;-72
2021/05/26 12:11:06;;;;;;;0.80;0.50;;;24.30;38.40;;;;;;6283421;28;20615;-72
2021/05/26 12:14:09;;;;;;;1.23;0.60;;;24.50;36.70;;;;;;6267337;28;20227;-72
2021/05/26 12:17:13;;;;;;;3.23;0.60;;;24.30;36.60;;;;;;6282800;28;20601;-72
2021/05/26 12:20:15;;;;;;;1.70;0.67;;;24.40;35.70;;;;;;6283303;28;20249;-72
2021/05/26 12:23:36;;;;;;;3.50;0.67;;;24.20;36.60;;;;;;6267982;28;20317;-73
2021/05/26 12:26:38;;;;;;;0.63;0.47;;;23.70;36.80;;;;;;6259237;28;20227;-72
2021/05/26 12:29:40;;;;;;;1.20;0.53;;;23.50;36.70;;;;;;6257798;28;20257;-72
2021/05/26 12:32:43;;;;;;;1.03;0.40;;;23.70;36.80;;;;;;6258011;28;20235;-72
2021/05/26 12:36:02;;;;;;;1.43;0.43;;;23.80;36.40;;;;;;6258885;28;20235;-72
2021/05/26 12:39:05;;;;;;;1.13;0.57;;;23.90;36.90;;;;;;6258419;28;20269;-72
2021/05/26 12:42:07;;;;;;;3.23;0.60;;;24.10;37.70;;;;;;6258668;28;20219;-72
2021/05/26 12:45:26;;;;;;;1.90;0.60;;;24.50;36.40;;;;;;6257087;28;20704;-72
2021/05/26 12:48:30;;;;;;;0.60;0.60;;;24.50;35.30;;;;;;6258055;28;20228;-72
2021/05/26 12:51:40;;;;;;;0.63;0.47;;;24.40;36.20;;;;;;6256575;28;20219;-72
2021/05/26 12:54:49;;;;;;;2.30;0.60;;;24.10;36.50;;;;;;6259356;28;20254;-72
2021/05/26 12:58:03;;;;;;;3.10;0.50;;;24.10;36.60;;;;;;6259055;28;20384;-72
2021/05/26 13:01:07;;;;;;;3.27;0.70;;;24.30;37.20;;;;;;6258790;28;20701;-72
2021/05/26 13:04:15;;;;;;;1.23;0.70;;;24.40;36.20;;;;;;6256019;28;20354;-73
2021/05/26 13:07:36;;;;;;;8.63;1.40;;;24.80;37.00;;;;;;6258842;28;20231;-72
2021/05/26 13:11:07;;;;;;;0.40;0.40;;;25.00;36.80;;;;;;6256839;28;20242;-72
2021/05/26 13:14:09;;;;;;;1.27;0.50;;;25.00;37.20;;;;;;6255805;28;20712;-72
2021/05/26 13:17:11;;;;;;;3.27;1.00;;;25.00;35.30;;;;;;6265106;28;20226;-71
2021/05/26 13:20:26;;;;;;;1.52;0.52;;;25.30;36.30;;;;;;6282427;28;20229;-72
2021/05/26 13:23:29;;;;;;;3.10;0.80;;;25.60;35.90;;;;;;6282674;28;20230;-72
2021/05/26 13:26:34;;;;;;;4.05;0.65;;;25.40;35.60;;;;;;6286105;28;20638;-71
2021/05/26 13:29:36;;;;;;;2.13;0.70;;;25.50;35.70;;;;;;6282541;28;20568;-72
2021/05/26 13:32:38;;;;;;;3.65;0.93;;;25.70;35.40;;;;;;6283136;28;20256;-72
2021/05/26 13:35:42;;;;;;;1.58;0.90;;;25.90;35.60;;;;;;6282725;28;20227;-71
2021/05/26 13:38:45;;;;;;;1.30;0.68;;;26.00;35.10;;;;;;6282999;28;20226;-71
2021/05/26 13:41:47;;;;;;;1.13;0.50;;;25.90;35.40;;;;;;6282180;28;20230;-72
2021/05/26 13:44:54;;;;;;;1.10;0.57;;;26.20;34.70;;;;;;6282186;28;20317;-72
2021/05/26 13:47:56;;;;;;;1.20;0.52;;;26.50;33.70;;;;;;6282292;28;20242;-72
2021/05/26 13:50:58;;;;;;;1.65;0.88;;;26.20;33.70;;;;;;6280086;28;20230;-71
2021/05/26 13:54:00;;;;;;;3.38;0.70;;;26.60;35.30;;;;;;6282519;28;20627;-72
2021/05/26 13:57:02;;;;;;;2.78;0.60;;;26.80;33.60;;;;;;6281082;28;20226;-72
2021/05/26 14:00:06;;;;;;;1.05;0.50;;;26.80;34.10;;;;;;6280568;28;20211;-72
2021/05/26 14:03:13;;;;;;;2.38;0.50;;;27.00;33.90;;;;;;6279621;28;20210;-72
2021/05/26 14:06:15;;;;;;;3.92;0.75;;;27.40;33.80;;;;;;6282867;28;20576;-71
2021/05/26 14:09:19;;;;;;;8.48;1.52;;;27.80;33.20;;;;;;6282196;28;20790;-68
2021/05/26 14:12:21;;;;;;;2.05;0.63;;;27.80;33.70;;;;;;6281506;28;20217;-70
2021/05/26 14:15:27;;;;;;;3.65;0.70;;;28.00;33.00;;;;;;6279669;28;20800;-70
2021/05/26 14:18:30;;;;;;;2.55;0.50;;;28.20;34.10;;;;;;6280395;28;20223;-70
2021/05/26 14:21:39;;;;;;;0.80;0.60;;;28.70;32.60;;;;;;6278120;28;20245;-70
2021/05/26 14:24:41;;;;;;;4.22;1.70;;;28.90;32.20;;;;;;6256469;28;20227;-70
2021/05/26 14:27:45;;;;;;;1.67;0.70;;;29.40;33.90;;;;;;6257337;28;20234;-71
2021/05/26 14:31:07;;;;;;;1.73;0.68;;;30.00;32.10;;;;;;6254702;28;20503;-71
2021/05/26 14:34:09;;;;;;;3.00;0.80;;;30.20;31.80;;;;;;6256767;28;20230;-71
2021/05/26 14:37:18;;;;;;;0.30;0.30;;;30.60;31.50;;;;;;6255379;28;20238;-71
2021/05/26 14:40:21;;;;;;;3.83;0.57;;;30.80;31.20;;;;;;6255700;28;20235;-71
2021/05/26 14:43:23;;;;;;;1.45;0.50;;;31.30;31.60;;;;;;6256721;28;20357;-70
2021/05/26 14:46:25;;;;;;;2.63;0.60;;;31.90;30.10;;;;;;6255903;28;20304;-71
2021/05/26 14:49:27;;;;;;;2.88;0.70;;;31.90;30.40;;;;;;6255148;28;20233;-70
2021/05/26 14:52:30;;;;;;;0.77;0.45;;;32.20;30.70;;;;;;6256142;28;20223;-71
2021/05/26 14:55:32;;;;;;;2.15;0.88;;;32.40;30.40;;;;;;6257140;28;20223;-71
2021/05/26 14:58:36;;;;;;;1.95;0.75;;;31.80;29.80;;;;;;6254405;28;20231;-70
2021/05/26 15:01:37;;;;;;;1.75;0.70;;;31.40;30.60;;;;;;6255433;28;20231;-71
2021/05/26 15:04:39;;;;;;;0.88;0.50;;;31.30;30.40;;;;;;6253098;28;20227;-70
2021/05/26 15:07:41;;;;;;;1.52;0.70;;;31.50;30.60;;;;;;6255502;28;20218;-71
2021/05/26 15:10:43;;;;;;;1.73;0.63;;;31.70;30.50;;;;;;6255118;28;20237;-70
2021/05/26 15:13:47;;;;;;;1.50;0.73;;;31.70;30.40;;;;;;6255509;28;20231;-71
2021/05/26 15:16:49;;;;;;;0.80;0.45;;;31.50;31.90;;;;;;6260131;28;20299;-70
2021/05/26 15:19:51;;;;;;;2.33;0.75;;;31.70;30.50;;;;;;6278485;28;20712;-70
2021/05/26 15:22:53;;;;;;;0.60;0.43;;;32.30;30.80;;;;;;6279816;28;20234;-70
2021/05/26 15:25:55;;;;;;;1.23;0.60;;;32.90;30.70;;;;;;6279621;28;20232;-71
2021/05/26 15:28:57;;;;;;;1.15;0.70;;;33.00;29.90;;;;;;6280825;28;20222;-71
2021/05/26 15:31:59;;;;;;;0.35;0.35;;;32.80;30.60;;;;;;6279872;28;20226;-70
2021/05/26 15:35:02;;;;;;;2.70;0.60;;;32.80;30.40;;;;;;6278064;28;20230;-71
2021/05/26 15:38:05;;;;;;;1.85;0.75;;;32.70;30.70;;;;;;6278675;28;20630;-70
2021/05/26 15:41:07;;;;;;;2.45;0.60;;;32.40;31.20;;;;;;6280389;28;20237;-70
2021/05/26 15:44:10;;;;;;;1.38;0.60;;;32.50;30.80;;;;;;6278006;28;20308;-69
2021/05/26 15:47:12;;;;;;;1.65;0.68;;;32.70;30.50;;;;;;6280786;28;20240;-69
2021/05/26 15:50:14;;;;;;;2.30;0.90;;;32.80;31.00;;;;;;6280912;28;20230;-70
2021/05/26 15:53:17;;;;;;;0.77;0.50;;;32.80;30.60;;;;;;6279511;28;20222;-70
2021/05/26 15:56:19;;;;;;;0.77;0.47;;;32.70;30.70;;;;;;6278491;28;20218;-70
2021/05/26 15:59:21;;;;;;;0.65;0.60;;;32.50;31.10;;;;;;6279517;28;20218;-70
2021/05/26 16:02:23;;;;;;;0.65;0.52;;;32.80;31.40;;;;;;6280361;28;20227;-70
2021/05/26 16:05:27;;;;;;;2.67;0.70;;;32.60;31.00;;;;;;6279355;28;20588;-70
2021/05/26 16:08:29;;;;;;;1.35;0.70;;;32.50;31.30;;;;;;6278047;28;20707;-71
2021/05/26 16:11:31;;;;;;;1.38;0.63;;;32.60;31.00;;;;;;6279719;28;20229;-71
2021/05/26 16:14:35;;;;;;;2.05;0.70;;;31.90;32.00;;;;;;6279831;28;20230;-70
2021/05/26 16:17:37;;;;;;;1.17;0.70;;;31.50;32.00;;;;;;6279812;28;20230;-70